sensor_id;sensor_type;location;lat;lon;timestamp;P1;durP1;ratioP1;P2;durP2;ratioP2
75892;SDS011;64572;50.950;3.676;2023-01-06T00:01:30;11.23;;;2.00;;
75892;SDS011;64572;50.950;3.676;2023-01-06T00:03:57;7.70;;;1.40;;
75892;SDS011;64572;50.950;3.676;2023-01-06T00:06:23;7.95;;;1.60;;
75892;SDS011;64572;50.950;3.676;2023-01-06T00:08:58;9.07;;;1.80;;
75892;SDS011;64572;50.950;3.676;2023-01-06T00:11:27;7.63;;;1.42;;
75892;SDS011;64572;50.950;3.676;2023-01-06T00:13:54;9.98;;;2.15;;
75892;SDS011;64572;50.950;3.676;2023-01-06T00:16:20;12.65;;;1.75;;
75892;SDS011;64572;50.950;3.676;2023-01-06T00:18:47;6.82;;;1.45;;
75892;SDS011;64572;50.950;3.676;2023-01-06T00:21:13;10.13;;;1.63;;
75892;SDS011;64572;50.950;3.676;2023-01-06T00:23:39;9.30;;;1.50;;
75892;SDS011;64572;50.950;3.676;2023-01-06T00:26:06;11.40;;;1.55;;
75892;SDS011;64572;50.950;3.676;2023-01-06T00:28:33;12.40;;;1.98;;
75892;SDS011;64572;50.950;3.676;2023-01-06T00:31:03;12.20;;;1.90;;
75892;SDS011;64572;50.950;3.676;2023-01-06T00:33:30;13.68;;;1.70;;
75892;SDS011;64572;50.950;3.676;2023-01-06T00:35:59;11.23;;;1.75;;
75892;SDS011;64572;50.950;3.676;2023-01-06T00:38:25;7.63;;;1.70;;
75892;SDS011;64572;50.950;3.676;2023-01-06T00:40:51;9.07;;;1.90;;
75892;SDS011;64572;50.950;3.676;2023-01-06T00:43:17;7.47;;;1.50;;
75892;SDS011;64572;50.950;3.676;2023-01-06T00:45:43;9.90;;;1.50;;
75892;SDS011;64572;50.950;3.676;2023-01-06T00:48:08;4.65;;;1.38;;
75892;SDS011;64572;50.950;3.676;2023-01-06T00:50:34;11.63;;;1.95;;
75892;SDS011;64572;50.950;3.676;2023-01-06T00:53:00;10.20;;;1.70;;
75892;SDS011;64572;50.950;3.676;2023-01-06T00:55:25;11.38;;;2.00;;
75892;SDS011;64572;50.950;3.676;2023-01-06T00:57:51;7.82;;;1.40;;
75892;SDS011;64572;50.950;3.676;2023-01-06T01:00:17;8.00;;;1.60;;
75892;SDS011;64572;50.950;3.676;2023-01-06T01:02:44;7.45;;;1.67;;
75892;SDS011;64572;50.950;3.676;2023-01-06T01:05:09;6.72;;;1.40;;
75892;SDS011;64572;50.950;3.676;2023-01-06T01:07:35;6.65;;;1.70;;
75892;SDS011;64572;50.950;3.676;2023-01-06T01:10:01;9.23;;;1.80;;
75892;SDS011;64572;50.950;3.676;2023-01-06T01:12:27;11.68;;;1.92;;
75892;SDS011;64572;50.950;3.676;2023-01-06T01:14:53;6.45;;;1.17;;
75892;SDS011;64572;50.950;3.676;2023-01-06T01:17:23;11.85;;;1.88;;
75892;SDS011;64572;50.950;3.676;2023-01-06T01:19:53;9.02;;;1.60;;
75892;SDS011;64572;50.950;3.676;2023-01-06T01:22:22;11.45;;;1.60;;
75892;SDS011;64572;50.950;3.676;2023-01-06T01:24:48;6.55;;;1.50;;
75892;SDS011;64572;50.950;3.676;2023-01-06T01:27:14;10.88;;;1.92;;
75892;SDS011;64572;50.950;3.676;2023-01-06T01:29:40;8.55;;;1.73;;
75892;SDS011;64572;50.950;3.676;2023-01-06T01:32:05;10.30;;;1.95;;
75892;SDS011;64572;50.950;3.676;2023-01-06T01:34:31;7.20;;;1.67;;
75892;SDS011;64572;50.950;3.676;2023-01-06T01:36:57;6.97;;;1.65;;
75892;SDS011;64572;50.950;3.676;2023-01-06T01:39:24;8.07;;;1.80;;
75892;SDS011;64572;50.950;3.676;2023-01-06T01:41:52;14.07;;;2.45;;
75892;SDS011;64572;50.950;3.676;2023-01-06T01:50:00;10.02;;;2.10;;
75892;SDS011;64572;50.950;3.676;2023-01-06T01:52:47;10.07;;;2.00;;
75892;SDS011;64572;50.950;3.676;2023-01-06T01:55:16;9.18;;;1.88;;
75892;SDS011;64572;50.950;3.676;2023-01-06T01:58:01;10.18;;;2.08;;
75892;SDS011;64572;50.950;3.676;2023-01-06T02:00:49;8.38;;;1.90;;
75892;SDS011;64572;50.950;3.676;2023-01-06T02:03:16;8.18;;;1.85;;
75892;SDS011;64572;50.950;3.676;2023-01-06T02:05:45;10.27;;;2.00;;
75892;SDS011;64572;50.950;3.676;2023-01-06T02:08:59;8.80;;;1.58;;
75892;SDS011;64572;50.950;3.676;2023-01-06T02:11:21;11.23;;;2.22;;
75892;SDS011;64572;50.950;3.676;2023-01-06T02:13:48;3.53;;;1.48;;
75892;SDS011;64572;50.950;3.676;2023-01-06T02:16:22;9.20;;;2.15;;
75892;SDS011;64572;50.950;3.676;2023-01-06T02:19:01;10.75;;;1.80;;
75892;SDS011;64572;50.950;3.676;2023-01-06T02:24:28;7.78;;;1.95;;
75892;SDS011;64572;50.950;3.676;2023-01-06T02:30:04;6.43;;;1.53;;
75892;SDS011;64572;50.950;3.676;2023-01-06T02:33:01;7.35;;;1.75;;
75892;SDS011;64572;50.950;3.676;2023-01-06T02:41:10;7.22;;;1.52;;
75892;SDS011;64572;50.950;3.676;2023-01-06T02:46:19;8.57;;;1.63;;
75892;SDS011;64572;50.950;3.676;2023-01-06T02:49:23;6.65;;;1.48;;
75892;SDS011;64572;50.950;3.676;2023-01-06T02:54:28;3.88;;;1.10;;
75892;SDS011;64572;50.950;3.676;2023-01-06T02:57:04;4.25;;;1.20;;
75892;SDS011;64572;50.950;3.676;2023-01-06T03:02:30;4.50;;;2.00;;
75892;SDS011;64572;50.950;3.676;2023-01-06T03:05:00;7.65;;;1.48;;
75892;SDS011;64572;50.950;3.676;2023-01-06T03:07:28;4.00;;;1.50;;
75892;SDS011;64572;50.950;3.676;2023-01-06T03:09:56;6.35;;;1.60;;
75892;SDS011;64572;50.950;3.676;2023-01-06T03:12:26;8.48;;;1.60;;
75892;SDS011;64572;50.950;3.676;2023-01-06T03:15:01;7.93;;;1.60;;
75892;SDS011;64572;50.950;3.676;2023-01-06T03:17:27;7.43;;;1.60;;
75892;SDS011;64572;50.950;3.676;2023-01-06T03:19:53;7.45;;;1.70;;
75892;SDS011;64572;50.950;3.676;2023-01-06T03:22:18;6.95;;;1.40;;
75892;SDS011;64572;50.950;3.676;2023-01-06T03:24:44;5.55;;;1.30;;
75892;SDS011;64572;50.950;3.676;2023-01-06T03:27:11;6.13;;;1.30;;
75892;SDS011;64572;50.950;3.676;2023-01-06T03:29:36;9.23;;;1.60;;
75892;SDS011;64572;50.950;3.676;2023-01-06T03:32:13;5.20;;;1.50;;
75892;SDS011;64572;50.950;3.676;2023-01-06T03:37:17;7.50;;;1.50;;
75892;SDS011;64572;50.950;3.676;2023-01-06T03:39:57;5.00;;;1.65;;
75892;SDS011;64572;50.950;3.676;2023-01-06T03:43:09;9.07;;;1.92;;
75892;SDS011;64572;50.950;3.676;2023-01-06T03:48:21;6.07;;;1.27;;
75892;SDS011;64572;50.950;3.676;2023-01-06T03:53:45;7.13;;;1.60;;
75892;SDS011;64572;50.950;3.676;2023-01-06T03:56:22;4.88;;;1.50;;
75892;SDS011;64572;50.950;3.676;2023-01-06T03:59:02;6.90;;;1.48;;
75892;SDS011;64572;50.950;3.676;2023-01-06T04:01:30;7.97;;;1.40;;
75892;SDS011;64572;50.950;3.676;2023-01-06T04:03:57;5.85;;;1.50;;
75892;SDS011;64572;50.950;3.676;2023-01-06T04:06:25;2.40;;;1.15;;
75892;SDS011;64572;50.950;3.676;2023-01-06T04:08:51;2.50;;;1.20;;
75892;SDS011;64572;50.950;3.676;2023-01-06T04:11:17;4.88;;;1.25;;
75892;SDS011;64572;50.950;3.676;2023-01-06T04:14:01;3.05;;;1.20;;
75892;SDS011;64572;50.950;3.676;2023-01-06T04:16:27;6.20;;;1.30;;
75892;SDS011;64572;50.950;3.676;2023-01-06T04:18:53;4.70;;;1.30;;
75892;SDS011;64572;50.950;3.676;2023-01-06T04:21:18;6.78;;;1.55;;
75892;SDS011;64572;50.950;3.676;2023-01-06T04:23:44;6.68;;;1.50;;
75892;SDS011;64572;50.950;3.676;2023-01-06T04:26:10;5.88;;;1.35;;
75892;SDS011;64572;50.950;3.676;2023-01-06T04:28:35;5.60;;;1.42;;
75892;SDS011;64572;50.950;3.676;2023-01-06T04:31:01;6.30;;;1.20;;
75892;SDS011;64572;50.950;3.676;2023-01-06T04:33:27;3.83;;;1.23;;
75892;SDS011;64572;50.950;3.676;2023-01-06T04:35:53;6.50;;;1.50;;
75892;SDS011;64572;50.950;3.676;2023-01-06T04:38:19;4.20;;;1.42;;
75892;SDS011;64572;50.950;3.676;2023-01-06T04:40:44;5.95;;;1.50;;
75892;SDS011;64572;50.950;3.676;2023-01-06T04:43:10;5.63;;;1.38;;
75892;SDS011;64572;50.950;3.676;2023-01-06T04:45:40;6.50;;;1.30;;
75892;SDS011;64572;50.950;3.676;2023-01-06T04:48:07;3.92;;;1.40;;
75892;SDS011;64572;50.950;3.676;2023-01-06T04:50:33;7.30;;;1.30;;
75892;SDS011;64572;50.950;3.676;2023-01-06T04:53:00;8.05;;;2.00;;
75892;SDS011;64572;50.950;3.676;2023-01-06T04:55:26;7.47;;;1.50;;
75892;SDS011;64572;50.950;3.676;2023-01-06T04:57:51;4.82;;;1.38;;
75892;SDS011;64572;50.950;3.676;2023-01-06T05:00:17;6.60;;;1.38;;
75892;SDS011;64572;50.950;3.676;2023-01-06T05:02:43;4.40;;;1.45;;
75892;SDS011;64572;50.950;3.676;2023-01-06T05:05:09;3.55;;;1.33;;
75892;SDS011;64572;50.950;3.676;2023-01-06T05:07:35;3.83;;;1.25;;
75892;SDS011;64572;50.950;3.676;2023-01-06T05:10:01;5.07;;;1.30;;
75892;SDS011;64572;50.950;3.676;2023-01-06T05:12:27;5.05;;;1.50;;
75892;SDS011;64572;50.950;3.676;2023-01-06T05:14:53;4.35;;;1.08;;
75892;SDS011;64572;50.950;3.676;2023-01-06T05:17:19;8.25;;;1.98;;
75892;SDS011;64572;50.950;3.676;2023-01-06T05:19:44;6.15;;;1.40;;
75892;SDS011;64572;50.950;3.676;2023-01-06T05:22:10;5.13;;;1.20;;
75892;SDS011;64572;50.950;3.676;2023-01-06T05:24:36;5.90;;;1.33;;
75892;SDS011;64572;50.950;3.676;2023-01-06T05:27:02;5.28;;;1.50;;
75892;SDS011;64572;50.950;3.676;2023-01-06T05:29:28;4.68;;;1.65;;
75892;SDS011;64572;50.950;3.676;2023-01-06T05:31:54;6.13;;;1.63;;
75892;SDS011;64572;50.950;3.676;2023-01-06T05:34:20;4.07;;;1.52;;
75892;SDS011;64572;50.950;3.676;2023-01-06T05:36:45;4.70;;;1.65;;
75892;SDS011;64572;50.950;3.676;2023-01-06T05:39:11;3.15;;;1.15;;
75892;SDS011;64572;50.950;3.676;2023-01-06T05:41:37;5.65;;;1.70;;
75892;SDS011;64572;50.950;3.676;2023-01-06T05:44:02;6.03;;;1.60;;
75892;SDS011;64572;50.950;3.676;2023-01-06T05:46:28;4.50;;;1.40;;
75892;SDS011;64572;50.950;3.676;2023-01-06T05:48:54;3.42;;;1.30;;
75892;SDS011;64572;50.950;3.676;2023-01-06T05:51:20;3.85;;;1.40;;
75892;SDS011;64572;50.950;3.676;2023-01-06T05:53:46;5.10;;;1.40;;
75892;SDS011;64572;50.950;3.676;2023-01-06T05:56:13;4.55;;;1.77;;
75892;SDS011;64572;50.950;3.676;2023-01-06T05:58:45;7.50;;;1.70;;
75892;SDS011;64572;50.950;3.676;2023-01-06T06:01:19;3.60;;;1.40;;
75892;SDS011;64572;50.950;3.676;2023-01-06T06:03:47;4.25;;;1.40;;
75892;SDS011;64572;50.950;3.676;2023-01-06T06:06:14;3.50;;;1.35;;
75892;SDS011;64572;50.950;3.676;2023-01-06T06:08:40;4.95;;;1.27;;
75892;SDS011;64572;50.950;3.676;2023-01-06T06:11:07;6.53;;;1.60;;
75892;SDS011;64572;50.950;3.676;2023-01-06T06:13:34;4.00;;;1.23;;
75892;SDS011;64572;50.950;3.676;2023-01-06T06:18:33;5.68;;;1.33;;
75892;SDS011;64572;50.950;3.676;2023-01-06T06:21:03;3.30;;;1.10;;
75892;SDS011;64572;50.950;3.676;2023-01-06T06:23:29;5.65;;;1.60;;
75892;SDS011;64572;50.950;3.676;2023-01-06T06:25:56;4.70;;;1.13;;
75892;SDS011;64572;50.950;3.676;2023-01-06T06:28:22;4.72;;;1.33;;
75892;SDS011;64572;50.950;3.676;2023-01-06T06:30:47;6.15;;;1.55;;
75892;SDS011;64572;50.950;3.676;2023-01-06T06:33:13;4.35;;;2.42;;
75892;SDS011;64572;50.950;3.676;2023-01-06T06:35:39;3.40;;;1.45;;
75892;SDS011;64572;50.950;3.676;2023-01-06T06:38:05;3.75;;;1.58;;
75892;SDS011;64572;50.950;3.676;2023-01-06T06:40:30;4.47;;;1.40;;
75892;SDS011;64572;50.950;3.676;2023-01-06T06:42:56;4.30;;;1.63;;
75892;SDS011;64572;50.950;3.676;2023-01-06T06:45:22;4.05;;;1.75;;
75892;SDS011;64572;50.950;3.676;2023-01-06T06:47:47;2.70;;;1.38;;
75892;SDS011;64572;50.950;3.676;2023-01-06T06:50:17;4.07;;;1.75;;
75892;SDS011;64572;50.950;3.676;2023-01-06T06:52:43;3.25;;;1.55;;
75892;SDS011;64572;50.950;3.676;2023-01-06T06:55:08;7.00;;;2.38;;
75892;SDS011;64572;50.950;3.676;2023-01-06T06:57:34;8.25;;;2.53;;
75892;SDS011;64572;50.950;3.676;2023-01-06T07:00:00;5.28;;;2.08;;
75892;SDS011;64572;50.950;3.676;2023-01-06T07:02:26;7.35;;;2.60;;
75892;SDS011;64572;50.950;3.676;2023-01-06T07:04:51;7.35;;;2.75;;
75892;SDS011;64572;50.950;3.676;2023-01-06T07:07:17;7.07;;;2.78;;
75892;SDS011;64572;50.950;3.676;2023-01-06T07:09:42;8.68;;;2.88;;
75892;SDS011;64572;50.950;3.676;2023-01-06T07:12:08;5.32;;;2.30;;
75892;SDS011;64572;50.950;3.676;2023-01-06T07:14:34;7.53;;;2.80;;
75892;SDS011;64572;50.950;3.676;2023-01-06T07:17:00;10.60;;;3.30;;
75892;SDS011;64572;50.950;3.676;2023-01-06T07:19:28;11.52;;;3.65;;
75892;SDS011;64572;50.950;3.676;2023-01-06T07:21:54;8.20;;;3.03;;
75892;SDS011;64572;50.950;3.676;2023-01-06T07:24:19;7.10;;;3.35;;
75892;SDS011;64572;50.950;3.676;2023-01-06T07:26:45;8.38;;;3.20;;
75892;SDS011;64572;50.950;3.676;2023-01-06T07:29:11;10.43;;;3.63;;
75892;SDS011;64572;50.950;3.676;2023-01-06T07:31:36;7.78;;;3.33;;
75892;SDS011;64572;50.950;3.676;2023-01-06T07:34:02;6.93;;;3.05;;
75892;SDS011;64572;50.950;3.676;2023-01-06T07:36:28;9.20;;;3.00;;
75892;SDS011;64572;50.950;3.676;2023-01-06T07:38:53;8.55;;;3.15;;
75892;SDS011;64572;50.950;3.676;2023-01-06T07:41:19;7.70;;;2.95;;
75892;SDS011;64572;50.950;3.676;2023-01-06T07:43:44;9.65;;;3.55;;
75892;SDS011;64572;50.950;3.676;2023-01-06T07:46:10;7.85;;;2.50;;
75892;SDS011;64572;50.950;3.676;2023-01-06T07:48:36;8.50;;;3.10;;
75892;SDS011;64572;50.950;3.676;2023-01-06T07:51:02;7.60;;;3.40;;
75892;SDS011;64572;50.950;3.676;2023-01-06T07:53:28;9.25;;;2.97;;
75892;SDS011;64572;50.950;3.676;2023-01-06T07:55:53;8.07;;;3.22;;
75892;SDS011;64572;50.950;3.676;2023-01-06T07:58:20;11.60;;;3.10;;
75892;SDS011;64572;50.950;3.676;2023-01-06T08:03:13;8.07;;;3.10;;
75892;SDS011;64572;50.950;3.676;2023-01-06T08:05:39;6.45;;;3.00;;
75892;SDS011;64572;50.950;3.676;2023-01-06T08:08:06;8.95;;;3.80;;
75892;SDS011;64572;50.950;3.676;2023-01-06T08:10:32;9.30;;;3.53;;
75892;SDS011;64572;50.950;3.676;2023-01-06T08:12:58;6.50;;;3.13;;
75892;SDS011;64572;50.950;3.676;2023-01-06T08:15:24;11.80;;;4.13;;
75892;SDS011;64572;50.950;3.676;2023-01-06T08:17:53;8.13;;;3.10;;
75892;SDS011;64572;50.950;3.676;2023-01-06T08:20:19;8.10;;;3.28;;
75892;SDS011;64572;50.950;3.676;2023-01-06T08:22:46;9.05;;;3.45;;
75892;SDS011;64572;50.950;3.676;2023-01-06T08:25:11;9.45;;;3.53;;
75892;SDS011;64572;50.950;3.676;2023-01-06T08:27:37;7.60;;;3.30;;
75892;SDS011;64572;50.950;3.676;2023-01-06T08:30:03;9.48;;;3.42;;
75892;SDS011;64572;50.950;3.676;2023-01-06T08:32:29;8.75;;;2.90;;
75892;SDS011;64572;50.950;3.676;2023-01-06T08:34:54;8.90;;;3.22;;
75892;SDS011;64572;50.950;3.676;2023-01-06T08:37:20;9.07;;;3.30;;
75892;SDS011;64572;50.950;3.676;2023-01-06T08:39:46;9.30;;;3.78;;
75892;SDS011;64572;50.950;3.676;2023-01-06T08:42:11;11.48;;;4.03;;
75892;SDS011;64572;50.950;3.676;2023-01-06T08:44:37;11.95;;;4.18;;
75892;SDS011;64572;50.950;3.676;2023-01-06T08:47:03;8.32;;;3.40;;
75892;SDS011;64572;50.950;3.676;2023-01-06T08:49:29;12.80;;;3.67;;
75892;SDS011;64572;50.950;3.676;2023-01-06T08:51:55;10.77;;;3.30;;
75892;SDS011;64572;50.950;3.676;2023-01-06T08:54:21;9.50;;;3.20;;
75892;SDS011;64572;50.950;3.676;2023-01-06T08:56:47;8.73;;;3.58;;
75892;SDS011;64572;50.950;3.676;2023-01-06T08:59:13;13.85;;;3.90;;
75892;SDS011;64572;50.950;3.676;2023-01-06T09:01:40;9.82;;;3.97;;
75892;SDS011;64572;50.950;3.676;2023-01-06T09:04:06;11.15;;;4.03;;
75892;SDS011;64572;50.950;3.676;2023-01-06T09:06:33;8.52;;;3.63;;
75892;SDS011;64572;50.950;3.676;2023-01-06T09:08:59;9.27;;;3.92;;
75892;SDS011;64572;50.950;3.676;2023-01-06T09:11:26;10.75;;;4.72;;
75892;SDS011;64572;50.950;3.676;2023-01-06T09:13:52;10.15;;;3.95;;
75892;SDS011;64572;50.950;3.676;2023-01-06T09:16:18;10.50;;;4.10;;
75892;SDS011;64572;50.950;3.676;2023-01-06T09:18:44;10.85;;;4.40;;
75892;SDS011;64572;50.950;3.676;2023-01-06T09:21:14;10.77;;;4.38;;
75892;SDS011;64572;50.950;3.676;2023-01-06T09:23:41;10.85;;;4.30;;
75892;SDS011;64572;50.950;3.676;2023-01-06T09:26:07;11.77;;;4.20;;
75892;SDS011;64572;50.950;3.676;2023-01-06T09:28:33;11.73;;;4.43;;
75892;SDS011;64572;50.950;3.676;2023-01-06T09:30:59;9.05;;;4.00;;
75892;SDS011;64572;50.950;3.676;2023-01-06T09:33:25;8.38;;;3.95;;
75892;SDS011;64572;50.950;3.676;2023-01-06T09:35:50;9.25;;;3.90;;
75892;SDS011;64572;50.950;3.676;2023-01-06T09:38:17;11.65;;;4.50;;
75892;SDS011;64572;50.950;3.676;2023-01-06T09:46:11;11.70;;;5.07;;
75892;SDS011;64572;50.950;3.676;2023-01-06T09:48:45;10.20;;;5.28;;
75892;SDS011;64572;50.950;3.676;2023-01-06T09:53:53;11.60;;;5.85;;
75892;SDS011;64572;50.950;3.676;2023-01-06T09:56:23;11.55;;;5.72;;
75892;SDS011;64572;50.950;3.676;2023-01-06T09:59:00;11.07;;;5.38;;
75892;SDS011;64572;50.950;3.676;2023-01-06T10:01:47;12.90;;;5.93;;
75892;SDS011;64572;50.950;3.676;2023-01-06T10:04:19;10.70;;;5.90;;
75892;SDS011;64572;50.950;3.676;2023-01-06T10:07:02;12.75;;;6.20;;
75892;SDS011;64572;50.950;3.676;2023-01-06T10:09:34;13.65;;;5.60;;
75892;SDS011;64572;50.950;3.676;2023-01-06T10:18:21;15.18;;;6.18;;
75892;SDS011;64572;50.950;3.676;2023-01-06T10:24:21;10.63;;;5.82;;
75892;SDS011;64572;50.950;3.676;2023-01-06T10:26:49;11.55;;;4.93;;
75892;SDS011;64572;50.950;3.676;2023-01-06T10:29:20;12.73;;;5.57;;
75892;SDS011;64572;50.950;3.676;2023-01-06T10:31:48;13.75;;;5.43;;
75892;SDS011;64572;50.950;3.676;2023-01-06T10:34:19;12.38;;;5.50;;
75892;SDS011;64572;50.950;3.676;2023-01-06T10:36:49;13.90;;;5.50;;
75892;SDS011;64572;50.950;3.676;2023-01-06T10:39:34;12.77;;;5.35;;
75892;SDS011;64572;50.950;3.676;2023-01-06T10:42:22;12.45;;;5.28;;
75892;SDS011;64572;50.950;3.676;2023-01-06T10:45:31;13.63;;;4.28;;
75892;SDS011;64572;50.950;3.676;2023-01-06T10:48:03;13.55;;;4.28;;
75892;SDS011;64572;50.950;3.676;2023-01-06T10:50:32;12.70;;;4.70;;
75892;SDS011;64572;50.950;3.676;2023-01-06T10:52:58;11.30;;;3.85;;
75892;SDS011;64572;50.950;3.676;2023-01-06T10:57:50;10.20;;;3.55;;
75892;SDS011;64572;50.950;3.676;2023-01-06T11:03:02;10.55;;;3.67;;
75892;SDS011;64572;50.950;3.676;2023-01-06T11:05:31;15.48;;;3.90;;
75892;SDS011;64572;50.950;3.676;2023-01-06T11:08:02;15.52;;;3.97;;
75892;SDS011;64572;50.950;3.676;2023-01-06T11:10:37;12.38;;;3.17;;
75892;SDS011;64572;50.950;3.676;2023-01-06T11:13:15;16.65;;;3.05;;
75892;SDS011;64572;50.950;3.676;2023-01-06T11:15:48;10.80;;;2.83;;
75892;SDS011;64572;50.950;3.676;2023-01-06T11:18:21;12.07;;;2.95;;
75892;SDS011;64572;50.950;3.676;2023-01-06T11:23:33;14.30;;;3.38;;
75892;SDS011;64572;50.950;3.676;2023-01-06T11:26:04;12.10;;;3.30;;
75892;SDS011;64572;50.950;3.676;2023-01-06T11:28:34;12.15;;;2.63;;
75892;SDS011;64572;50.950;3.676;2023-01-06T11:31:01;13.82;;;3.15;;
75892;SDS011;64572;50.950;3.676;2023-01-06T11:33:30;12.02;;;2.97;;
75892;SDS011;64572;50.950;3.676;2023-01-06T11:35:58;15.40;;;3.03;;
75892;SDS011;64572;50.950;3.676;2023-01-06T11:38:45;12.20;;;2.90;;
75892;SDS011;64572;50.950;3.676;2023-01-06T11:41:17;11.63;;;3.10;;
75892;SDS011;64572;50.950;3.676;2023-01-06T11:44:06;11.77;;;3.42;;
75892;SDS011;64572;50.950;3.676;2023-01-06T11:46:33;11.93;;;3.80;;
75892;SDS011;64572;50.950;3.676;2023-01-06T11:49:14;16.15;;;5.38;;
75892;SDS011;64572;50.950;3.676;2023-01-06T11:51:50;14.95;;;4.93;;
75892;SDS011;64572;50.950;3.676;2023-01-06T11:54:32;13.23;;;3.85;;
75892;SDS011;64572;50.950;3.676;2023-01-06T12:02:57;14.80;;;3.93;;
75892;SDS011;64572;50.950;3.676;2023-01-06T12:05:42;10.68;;;3.95;;
75892;SDS011;64572;50.950;3.676;2023-01-06T12:13:41;10.25;;;3.72;;
75892;SDS011;64572;50.950;3.676;2023-01-06T12:16:12;10.05;;;4.10;;
75892;SDS011;64572;50.950;3.676;2023-01-06T12:18:58;10.02;;;3.70;;
75892;SDS011;64572;50.950;3.676;2023-01-06T12:21:28;9.30;;;3.35;;
75892;SDS011;64572;50.950;3.676;2023-01-06T12:24:00;9.43;;;4.50;;
75892;SDS011;64572;50.950;3.676;2023-01-06T12:26:29;9.52;;;4.90;;
75892;SDS011;64572;50.950;3.676;2023-01-06T12:28:56;11.80;;;5.60;;
75892;SDS011;64572;50.950;3.676;2023-01-06T12:41:59;12.68;;;6.88;;
75892;SDS011;64572;50.950;3.676;2023-01-06T12:44:42;12.82;;;7.13;;
75892;SDS011;64572;50.950;3.676;2023-01-06T12:47:14;13.93;;;8.65;;
75892;SDS011;64572;50.950;3.676;2023-01-06T12:49:53;13.55;;;8.70;;
75892;SDS011;64572;50.950;3.676;2023-01-06T12:52:24;15.13;;;9.23;;
75892;SDS011;64572;50.950;3.676;2023-01-06T12:54:56;17.45;;;10.38;;
75892;SDS011;64572;50.950;3.676;2023-01-06T13:09:19;12.98;;;7.65;;
75892;SDS011;64572;50.950;3.676;2023-01-06T13:17:38;11.95;;;7.00;;
75892;SDS011;64572;50.950;3.676;2023-01-06T13:20:28;11.43;;;6.88;;
75892;SDS011;64572;50.950;3.676;2023-01-06T13:23:27;12.38;;;7.25;;
75892;SDS011;64572;50.950;3.676;2023-01-06T13:34:44;13.25;;;8.15;;
75892;SDS011;64572;50.950;3.676;2023-01-06T13:39:57;14.55;;;9.48;;
75892;SDS011;64572;50.950;3.676;2023-01-06T13:42:32;14.13;;;8.55;;
75892;SDS011;64572;50.950;3.676;2023-01-06T13:45:17;16.33;;;8.13;;
75892;SDS011;64572;50.950;3.676;2023-01-06T13:47:54;15.30;;;8.20;;
75892;SDS011;64572;50.950;3.676;2023-01-06T13:50:24;12.20;;;5.13;;
75892;SDS011;64572;50.950;3.676;2023-01-06T13:52:51;9.65;;;5.03;;
75892;SDS011;64572;50.950;3.676;2023-01-06T13:57:46;9.45;;;4.15;;
75892;SDS011;64572;50.950;3.676;2023-01-06T14:00:16;8.63;;;4.10;;
75892;SDS011;64572;50.950;3.676;2023-01-06T14:07:49;8.93;;;4.03;;
75892;SDS011;64572;50.950;3.676;2023-01-06T14:12:56;8.50;;;3.55;;
75892;SDS011;64572;50.950;3.676;2023-01-06T14:15:25;8.43;;;3.60;;
75892;SDS011;64572;50.950;3.676;2023-01-06T14:17:53;9.07;;;3.67;;
75892;SDS011;64572;50.950;3.676;2023-01-06T14:20:25;8.07;;;3.45;;
75892;SDS011;64572;50.950;3.676;2023-01-06T14:23:16;9.50;;;4.03;;
75892;SDS011;64572;50.950;3.676;2023-01-06T14:25:48;7.97;;;3.88;;
75892;SDS011;64572;50.950;3.676;2023-01-06T14:30:49;9.02;;;4.30;;
75892;SDS011;64572;50.950;3.676;2023-01-06T14:35:53;11.82;;;3.78;;
75892;SDS011;64572;50.950;3.676;2023-01-06T14:38:31;7.15;;;3.30;;
75892;SDS011;64572;50.950;3.676;2023-01-06T14:41:12;8.82;;;4.00;;
75892;SDS011;64572;50.950;3.676;2023-01-06T14:43:50;11.02;;;3.88;;
75892;SDS011;64572;50.950;3.676;2023-01-06T14:46:21;10.85;;;3.80;;
75892;SDS011;64572;50.950;3.676;2023-01-06T14:48:53;10.55;;;4.47;;
75892;SDS011;64572;50.950;3.676;2023-01-06T14:51:26;11.30;;;4.43;;
75892;SDS011;64572;50.950;3.676;2023-01-06T14:53:55;9.32;;;4.65;;
75892;SDS011;64572;50.950;3.676;2023-01-06T14:56:30;12.68;;;4.75;;
75892;SDS011;64572;50.950;3.676;2023-01-06T14:59:03;9.05;;;3.83;;
75892;SDS011;64572;50.950;3.676;2023-01-06T15:01:38;10.48;;;4.20;;
75892;SDS011;64572;50.950;3.676;2023-01-06T15:04:18;9.00;;;4.00;;
75892;SDS011;64572;50.950;3.676;2023-01-06T15:07:00;9.77;;;4.53;;
75892;SDS011;64572;50.950;3.676;2023-01-06T15:09:47;8.57;;;4.07;;
75892;SDS011;64572;50.950;3.676;2023-01-06T15:14:50;8.80;;;4.10;;
75892;SDS011;64572;50.950;3.676;2023-01-06T15:17:16;8.00;;;3.92;;
75892;SDS011;64572;50.950;3.676;2023-01-06T15:19:42;6.88;;;3.65;;
75892;SDS011;64572;50.950;3.676;2023-01-06T15:22:08;8.07;;;3.90;;
75892;SDS011;64572;50.950;3.676;2023-01-06T15:24:39;9.18;;;4.55;;
75892;SDS011;64572;50.950;3.676;2023-01-06T15:27:07;11.77;;;4.55;;
75892;SDS011;64572;50.950;3.676;2023-01-06T15:29:37;8.95;;;4.28;;
75892;SDS011;64572;50.950;3.676;2023-01-06T15:32:03;10.02;;;4.47;;
75892;SDS011;64572;50.950;3.676;2023-01-06T15:36:56;10.68;;;4.90;;
75892;SDS011;64572;50.950;3.676;2023-01-06T15:39:26;11.68;;;5.43;;
75892;SDS011;64572;50.950;3.676;2023-01-06T15:41:55;10.10;;;4.68;;
75892;SDS011;64572;50.950;3.676;2023-01-06T15:44:29;9.73;;;5.03;;
75892;SDS011;64572;50.950;3.676;2023-01-06T15:47:01;12.57;;;5.50;;
75892;SDS011;64572;50.950;3.676;2023-01-06T15:49:38;11.30;;;4.97;;
75892;SDS011;64572;50.950;3.676;2023-01-06T15:54:49;11.00;;;4.90;;
75892;SDS011;64572;50.950;3.676;2023-01-06T15:57:16;12.18;;;5.50;;
75892;SDS011;64572;50.950;3.676;2023-01-06T15:59:49;13.02;;;5.50;;
75892;SDS011;64572;50.950;3.676;2023-01-06T16:02:30;12.05;;;5.50;;
75892;SDS011;64572;50.950;3.676;2023-01-06T16:04:57;12.35;;;5.60;;
75892;SDS011;64572;50.950;3.676;2023-01-06T16:07:37;12.82;;;5.50;;
75892;SDS011;64572;50.950;3.676;2023-01-06T16:13:03;13.35;;;6.30;;
75892;SDS011;64572;50.950;3.676;2023-01-06T16:15:48;13.80;;;5.82;;
75892;SDS011;64572;50.950;3.676;2023-01-06T16:18:23;9.68;;;5.28;;
75892;SDS011;64572;50.950;3.676;2023-01-06T16:21:11;11.70;;;6.05;;
75892;SDS011;64572;50.950;3.676;2023-01-06T16:23:47;9.65;;;4.68;;
75892;SDS011;64572;50.950;3.676;2023-01-06T16:26:16;10.15;;;5.45;;
75892;SDS011;64572;50.950;3.676;2023-01-06T16:28:48;10.10;;;4.25;;
75892;SDS011;64572;50.950;3.676;2023-01-06T16:31:34;9.05;;;4.35;;
75892;SDS011;64572;50.950;3.676;2023-01-06T16:34:21;8.88;;;4.53;;
75892;SDS011;64572;50.950;3.676;2023-01-06T16:36:52;9.10;;;3.58;;
75892;SDS011;64572;50.950;3.676;2023-01-06T16:39:19;8.00;;;3.95;;
75892;SDS011;64572;50.950;3.676;2023-01-06T16:44:23;9.93;;;4.95;;
75892;SDS011;64572;50.950;3.676;2023-01-06T16:46:54;8.45;;;4.43;;
75892;SDS011;64572;50.950;3.676;2023-01-06T16:49:20;9.50;;;4.65;;
75892;SDS011;64572;50.950;3.676;2023-01-06T16:51:46;10.43;;;5.50;;
75892;SDS011;64572;50.950;3.676;2023-01-06T16:54:13;12.45;;;6.43;;
75892;SDS011;64572;50.950;3.676;2023-01-06T16:56:45;13.30;;;6.95;;
75892;SDS011;64572;50.950;3.676;2023-01-06T16:59:12;13.95;;;6.45;;
75892;SDS011;64572;50.950;3.676;2023-01-06T17:01:42;10.70;;;5.82;;
75892;SDS011;64572;50.950;3.676;2023-01-06T17:04:10;13.10;;;6.90;;
75892;SDS011;64572;50.950;3.676;2023-01-06T17:06:38;11.45;;;7.10;;
75892;SDS011;64572;50.950;3.676;2023-01-06T17:09:20;13.43;;;7.20;;
75892;SDS011;64572;50.950;3.676;2023-01-06T17:11:47;13.50;;;6.97;;
75892;SDS011;64572;50.950;3.676;2023-01-06T17:14:16;15.38;;;8.00;;
75892;SDS011;64572;50.950;3.676;2023-01-06T17:16:46;13.02;;;8.15;;
75892;SDS011;64572;50.950;3.676;2023-01-06T17:21:43;10.73;;;5.75;;
75892;SDS011;64572;50.950;3.676;2023-01-06T17:26:49;11.90;;;6.43;;
75892;SDS011;64572;50.950;3.676;2023-01-06T17:29:17;11.93;;;5.32;;